Time;durP1;ratioP1;P1;durP2;ratioP2;P2;SDS_P1;SDS_P2;PMS_P1;PMS_P2;Temp;Humidity;BMP_temperature;BMP_pressure;BME280_temperature;BME280_humidity;BME280_pressure;Samples;Min_cycle;Max_cycle;Signal;HPM_P1;HPM_P2
2022/04/09 00:00:31;;;;;;;5.40;0.68;;;4.60;99.90;;;;;;4208736;28;20052;-88
2022/04/09 00:02:31;;;;;;;7.03;0.90;;;5.20;99.90;;;;;;4229818;28;20024;-89
2022/04/09 00:04:32;;;;;;;1.98;0.75;;;5.70;99.90;;;;;;4211227;28;20074;-89
2022/04/09 00:06:35;;;;;;;6.63;0.85;;;4.30;99.90;;;;;;4226684;28;20074;-88
2022/04/09 00:08:38;;;;;;;7.10;0.80;;;5.40;99.90;;;;;;4222388;28;20047;-89
2022/04/09 00:10:39;;;;;;;3.97;0.80;;;5.50;99.90;;;;;;4213278;28;20055;-89
2022/04/09 00:12:45;;;;;;;3.83;1.05;;;4.20;99.90;;;;;;4213241;28;20041;-88
2022/04/09 00:14:46;;;;;;;5.85;0.52;;;4.20;99.90;;;;;;4234346;28;20044;-89
2022/04/09 00:16:47;;;;;;;6.18;1.42;;;4.20;99.90;;;;;;4231678;28;20536;-89
2022/04/09 00:18:49;;;;;;;3.53;1.05;;;4.10;99.90;;;;;;4208023;28;20117;-89
2022/04/09 00:20:50;;;;;;;7.82;0.68;;;5.20;99.90;;;;;;4208274;28;20482;-89
2022/04/09 00:22:51;;;;;;;4.57;0.93;;;4.10;99.90;;;;;;4206624;28;20040;-89
2022/04/09 00:24:54;;;;;;;4.65;1.38;;;4.20;99.90;;;;;;4207420;28;20128;-89
2022/04/09 00:26:55;;;;;;;3.42;1.10;;;5.20;99.90;;;;;;4216586;28;20087;-89
2022/04/09 00:28:57;;;;;;;5.97;1.55;;;5.10;99.90;;;;;;4195678;28;20032;-89
2022/04/09 00:30:59;;;;;;;6.82;1.00;;;4.80;99.90;;;;;;4189603;28;20082;-88
2022/04/09 00:33:01;;;;;;;10.95;1.77;;;4.30;99.90;;;;;;4189139;28;20590;-90
2022/04/09 00:35:04;;;;;;;4.43;0.93;;;5.10;99.90;;;;;;4212265;28;20048;-90
2022/04/09 00:37:05;;;;;;;8.02;1.10;;;4.40;99.90;;;;;;4189092;28;20082;-89
2022/04/09 00:39:06;;;;;;;6.40;1.30;;;4.40;99.90;;;;;;4207561;28;20484;-90
2022/04/09 00:41:10;;;;;;;2.78;0.60;;;5.20;99.90;;;;;;4201422;28;20155;-89
2022/04/09 00:43:11;;;;;;;13.30;2.83;;;5.00;99.90;;;;;;4211499;28;20099;-89
2022/04/09 00:45:13;;;;;;;6.45;0.88;;;5.20;99.90;;;;;;4211777;28;20087;-89
2022/04/09 00:47:14;;;;;;;6.68;0.70;;;5.30;99.90;;;;;;4207789;28;20529;-89
2022/04/09 00:49:17;;;;;;;3.65;0.55;;;5.30;99.90;;;;;;4206020;28;20041;-89
2022/04/09 00:51:18;;;;;;;5.20;0.75;;;5.20;99.90;;;;;;4194064;28;20456;-89
2022/04/09 00:53:20;;;;;;;5.05;1.05;;;4.70;99.90;;;;;;4186899;28;20096;-89
2022/04/09 00:57:46;;;;;;;6.32;1.33;;;5.70;99.90;;;;;;4205672;28;20494;-89
2022/04/09 00:59:50;;;;;;;11.65;1.63;;;4.30;99.90;;;;;;4211297;28;20047;-89
2022/04/09 01:01:54;;;;;;;5.53;0.90;;;5.00;99.90;;;;;;4194714;28;20052;-90
2022/04/09 01:03:56;;;;;;;11.27;1.20;;;5.60;99.90;;;;;;4191159;28;20049;-89
2022/04/09 01:05:58;;;;;;;6.30;0.70;;;4.30;99.90;;;;;;4192493;28;20059;-89
2022/04/09 01:07:58;;;;;;;6.38;1.13;;;5.70;99.90;;;;;;4204289;28;20586;-89
2022/04/09 01:10:00;;;;;;;6.45;0.90;;;5.00;99.90;;;;;;4211072;28;20048;-90
2022/04/09 01:12:03;;;;;;;5.78;0.80;;;5.10;99.90;;;;;;4205075;28;20044;-89
2022/04/09 01:14:05;;;;;;;3.60;0.88;;;4.30;99.90;;;;;;4198348;28;20078;-90
2022/04/09 01:16:07;;;;;;;5.53;0.88;;;4.30;99.90;;;;;;4192050;28;20099;-90
2022/04/09 01:18:10;;;;;;;9.75;1.33;;;5.00;99.90;;;;;;4186153;28;20037;-90
2022/04/09 01:20:26;;;;;;;4.15;1.10;;;5.00;99.90;;;;;;4190311;28;20143;-90
2022/04/09 01:22:27;;;;;;;6.43;1.15;;;4.30;99.90;;;;;;4210444;28;20040;-89
2022/04/09 01:24:29;;;;;;;4.82;1.00;;;4.30;99.90;;;;;;4207211;28;20113;-89
2022/04/09 01:26:31;;;;;;;4.57;0.90;;;4.30;99.90;;;;;;4211240;28;20131;-89
2022/04/09 01:28:33;;;;;;;5.78;0.80;;;4.20;99.90;;;;;;4203597;28;20098;-89
2022/04/09 01:30:34;;;;;;;5.68;0.70;;;5.70;99.90;;;;;;4191306;28;20071;-90
2022/04/09 01:32:36;;;;;;;3.97;1.15;;;4.80;99.90;;;;;;4209129;28;20126;-90
2022/04/09 01:34:39;;;;;;;14.00;1.58;;;5.30;99.90;;;;;;4193217;28;20072;-90
2022/04/09 01:36:41;;;;;;;3.85;0.75;;;4.00;99.90;;;;;;4187145;28;20041;-90
2022/04/09 01:38:42;;;;;;;5.85;0.95;;;4.10;99.90;;;;;;4187278;28;20482;-90
2022/04/09 01:40:43;;;;;;;7.45;0.80;;;4.00;99.90;;;;;;4207535;28;20036;-89
2022/04/09 01:42:44;;;;;;;7.35;0.88;;;4.00;99.90;;;;;;4204578;28;20040;-90
2022/04/09 01:44:46;;;;;;;9.45;1.48;;;5.10;99.90;;;;;;4192933;28;20048;-90
2022/04/09 01:46:47;;;;;;;8.85;1.25;;;4.80;99.90;;;;;;4186055;28;20059;-90
2022/04/09 01:48:48;;;;;;;2.35;0.70;;;4.90;99.90;;;;;;4213116;28;20071;-90
2022/04/09 01:50:49;;;;;;;10.48;1.15;;;3.10;99.90;;;;;;4194409;28;20056;-89
2022/04/09 01:52:50;;;;;;;11.75;1.17;;;3.80;99.90;;;;;;4205004;28;20505;-90
2022/04/09 01:54:50;;;;;;;2.40;0.90;;;3.50;99.90;;;;;;4193682;28;20106;-90
2022/04/09 01:56:51;;;;;;;4.72;1.08;;;4.10;99.90;;;;;;4203552;28;20042;-90
2022/04/09 01:58:53;;;;;;;6.03;1.15;;;3.80;99.90;;;;;;4190619;28;20472;-90
2022/04/09 02:00:58;;;;;;;6.03;0.57;;;3.90;99.90;;;;;;4202323;28;20060;-89
2022/04/09 02:02:59;;;;;;;2.00;0.50;;;4.00;99.90;;;;;;4192202;28;20045;-90
2022/04/09 02:05:00;;;;;;;3.70;0.85;;;5.10;99.90;;;;;;4201572;28;20501;-90
2022/04/09 02:07:01;;;;;;;8.75;1.17;;;3.40;99.90;;;;;;4193249;28;20048;-90
2022/04/09 02:09:04;;;;;;;8.40;0.77;;;3.80;99.90;;;;;;4195406;28;20079;-90
2022/04/09 02:11:05;;;;;;;5.93;1.23;;;3.70;99.90;;;;;;4191836;28;20520;-90
2022/04/09 02:13:13;;;;;;;3.08;0.80;;;5.10;99.90;;;;;;4196616;28;20098;-90
2022/04/09 02:15:16;;;;;;;7.18;0.90;;;5.10;99.90;;;;;;4184841;28;20469;-90
2022/04/09 02:17:17;;;;;;;5.32;0.90;;;3.50;99.90;;;;;;4202370;28;20048;-90
2022/04/09 02:19:18;;;;;;;4.45;0.82;;;4.70;99.90;;;;;;4183471;28;20429;-90
2022/04/09 02:21:20;;;;;;;6.78;1.17;;;4.00;99.90;;;;;;4209981;28;20051;-90
2022/04/09 02:23:22;;;;;;;8.43;1.65;;;4.10;99.90;;;;;;4185895;28;20511;-89
2022/04/09 02:25:23;;;;;;;5.60;1.25;;;4.30;99.90;;;;;;4208370;28;20044;-89
2022/04/09 02:27:23;;;;;;;3.35;0.50;;;5.00;99.90;;;;;;4190539;28;20079;-89
2022/04/09 02:29:24;;;;;;;3.35;0.90;;;3.50;99.90;;;;;;4200504;28;20517;-89
2022/04/09 02:31:26;;;;;;;7.28;0.70;;;5.00;99.90;;;;;;4204057;28;20048;-89
2022/04/09 02:33:26;;;;;;;5.72;0.82;;;3.50;99.90;;;;;;4193933;28;20127;-89
2022/04/09 02:35:28;;;;;;;3.50;1.10;;;4.80;99.90;;;;;;4188375;28;20067;-89
2022/04/09 02:37:30;;;;;;;4.80;1.42;;;3.60;99.90;;;;;;4205863;28;20560;-90
2022/04/09 02:39:31;;;;;;;9.20;1.65;;;4.30;99.90;;;;;;4186202;28;20511;-89
2022/04/09 02:41:33;;;;;;;6.15;1.05;;;3.70;99.90;;;;;;4202238;28;20128;-89
2022/04/09 02:43:34;;;;;;;5.65;0.70;;;4.80;99.90;;;;;;4199814;28;20036;-89
2022/04/09 02:45:36;;;;;;;9.13;1.25;;;5.10;99.90;;;;;;4189297;28;20048;-89
2022/04/09 02:47:37;;;;;;;7.82;1.52;;;4.90;99.90;;;;;;4211159;28;20073;-89
2022/04/09 02:49:39;;;;;;;3.45;0.47;;;5.30;99.90;;;;;;4186968;28;20572;-88
2022/04/09 02:51:39;;;;;;;2.97;1.00;;;4.30;99.90;;;;;;4193862;28;20112;-89
2022/04/09 02:53:40;;;;;;;2.80;0.95;;;;;;;;;;4186796;28;20426;-89
2022/04/09 02:55:41;;;;;;;12.40;1.85;;;3.70;99.90;;;;;;4186965;28;20053;-88
2022/04/09 02:57:43;;;;;;;7.70;1.08;;;5.20;99.90;;;;;;4209102;28;20040;-89
2022/04/09 02:59:44;;;;;;;5.65;1.17;;;5.00;99.90;;;;;;4199189;28;20567;-90
2022/04/09 03:01:46;;;;;;;8.82;1.00;;;4.20;99.90;;;;;;4210195;28;20048;-90
2022/04/09 03:03:47;;;;;;;6.32;0.90;;;4.90;99.90;;;;;;4204245;28;20036;-89
2022/04/09 03:05:48;;;;;;;4.80;0.90;;;4.70;99.90;;;;;;4188417;28;20084;-90
2022/04/09 03:07:48;;;;;;;6.03;0.77;;;4.80;99.90;;;;;;4204626;28;20103;-89
2022/04/09 03:09:49;;;;;;;0.73;0.50;;;4.70;99.90;;;;;;4184617;28;20049;-89
2022/04/09 03:11:51;;;;;;;6.70;0.63;;;3.60;99.90;;;;;;4193996;28;21044;-89
2022/04/09 03:13:53;;;;;;;4.90;0.68;;;3.50;99.90;;;;;;4187136;28;20055;-89
2022/04/09 03:15:53;;;;;;;6.57;0.90;;;4.70;99.90;;;;;;4210205;28;20494;-90
2022/04/09 03:17:54;;;;;;;6.03;0.88;;;3.50;99.90;;;;;;4216460;28;20132;-90
2022/04/09 03:19:56;;;;;;;5.55;1.02;;;3.40;99.90;;;;;;4198650;28;20590;-90
2022/04/09 03:21:58;;;;;;;3.03;0.65;;;5.00;99.90;;;;;;4206842;28;20060;-89
2022/04/09 03:23:59;;;;;;;6.90;1.35;;;4.20;99.90;;;;;;4194772;28;20119;-90
2022/04/09 03:26:00;;;;;;;7.35;0.70;;;3.90;99.90;;;;;;4188877;28;20494;-89
2022/04/09 03:28:01;;;;;;;8.32;1.45;;;3.60;99.90;;;;;;4193326;28;20128;-90
2022/04/09 03:30:04;;;;;;;4.55;0.98;;;4.70;99.90;;;;;;4197370;28;20537;-90
2022/04/09 03:32:05;;;;;;;5.18;0.95;;;3.60;99.90;;;;;;4188228;28;20072;-89
2022/04/09 03:34:07;;;;;;;10.38;1.23;;;3.60;99.90;;;;;;4188309;28;20416;-89
2022/04/09 03:36:08;;;;;;;9.23;1.67;;;4.50;99.90;;;;;;4228616;28;20398;-89
2022/04/09 03:38:12;;;;;;;3.33;1.30;;;4.30;99.90;;;;;;4197858;28;20052;-89
2022/04/09 03:40:14;;;;;;;7.13;0.90;;;3.50;99.90;;;;;;4197125;28;20246;-89
2022/04/09 03:42:15;;;;;;;5.47;0.88;;;4.10;99.90;;;;;;4217434;28;20048;-89
2022/04/09 03:44:17;;;;;;;6.28;0.95;;;3.60;99.90;;;;;;4190895;28;20511;-89
2022/04/09 03:46:17;;;;;;;6.78;1.23;;;5.10;99.90;;;;;;4214091;28;20047;-90
2022/04/09 03:48:18;;;;;;;4.70;0.80;;;2.30;99.90;;;;;;4189921;28;20063;-89
2022/04/09 03:50:20;;;;;;;7.85;1.50;;;4.80;99.90;;;;;;4190078;28;20080;-89
2022/04/09 03:52:22;;;;;;;9.35;1.20;;;5.00;99.90;;;;;;4209510;28;20122;-89
2022/04/09 03:54:25;;;;;;;9.82;1.63;;;3.60;99.90;;;;;;4210127;28;20055;-90
2022/04/09 03:56:26;;;;;;;3.85;0.85;;;4.60;99.90;;;;;;4188889;28;20587;-89
2022/04/09 03:58:28;;;;;;;8.02;1.17;;;5.10;99.90;;;;;;4197227;28;20045;-90
2022/04/09 04:00:30;;;;;;;5.45;0.90;;;2.30;99.90;;;;;;4206536;28;20513;-90
2022/04/09 04:02:30;;;;;;;4.50;1.10;;;3.60;99.90;;;;;;4210881;28;20386;-89
2022/04/09 04:04:32;;;;;;;7.00;1.08;;;3.60;99.90;;;;;;4211582;28;20055;-89
2022/04/09 04:06:33;;;;;;;4.93;0.73;;;4.70;99.90;;;;;;4205102;28;20079;-89
2022/04/09 04:08:34;;;;;;;6.28;0.88;;;3.50;99.90;;;;;;4214529;28;20498;-89
2022/04/09 04:10:37;;;;;;;5.75;1.15;;;4.50;99.90;;;;;;4189397;28;20107;-88
2022/04/09 04:12:43;;;;;;;10.15;1.23;;;3.50;99.90;;;;;;4210544;28;20047;-89
2022/04/09 04:14:46;;;;;;;9.10;0.70;;;5.00;99.90;;;;;;4213727;28;20577;-90
2022/04/09 04:16:47;;;;;;;5.50;1.02;;;3.60;99.90;;;;;;4204280;28;20060;-89
2022/04/09 04:18:49;;;;;;;4.43;0.80;;;4.70;99.90;;;;;;4211949;28;20132;-90
2022/04/09 04:20:49;;;;;;;3.13;0.80;;;4.60;99.90;;;;;;4210034;28;20050;-90
2022/04/09 04:22:51;;;;;;;6.18;0.80;;;3.70;99.90;;;;;;4194829;28;20084;-90
2022/04/09 04:24:52;;;;;;;3.78;0.63;;;3.60;99.90;;;;;;4208471;28;20053;-90
2022/04/09 04:26:53;;;;;;;8.55;1.13;;;2.60;99.90;;;;;;4204368;28;20416;-89
2022/04/09 04:28:54;;;;;;;5.10;0.85;;;4.20;99.90;;;;;;4196428;28;20036;-89
2022/04/09 04:30:55;;;;;;;8.30;2.00;;;5.00;99.90;;;;;;4215265;28;20583;-89
2022/04/09 04:32:57;;;;;;;3.92;0.80;;;3.60;99.90;;;;;;4193917;28;20312;-89
2022/04/09 04:34:59;;;;;;;2.22;0.60;;;5.00;99.90;;;;;;4204153;28;20494;-89
2022/04/09 04:37:04;;;;;;;8.90;1.27;;;3.20;99.90;;;;;;4194947;28;20592;-89
2022/04/09 04:39:05;;;;;;;3.55;0.63;;;2.20;99.90;;;;;;4205606;28;20052;-89
2022/04/09 04:41:06;;;;;;;9.82;1.38;;;3.30;99.90;;;;;;4210982;28;20476;-90
2022/04/09 04:43:07;;;;;;;3.47;1.52;;;3.70;99.90;;;;;;4186357;28;20070;-90
2022/04/09 04:45:10;;;;;;;5.40;1.20;;;3.30;99.90;;;;;;4201836;28;20041;-90
2022/04/09 04:47:11;;;;;;;7.65;1.33;;;3.30;99.90;;;;;;4205859;28;20055;-90
2022/04/09 04:49:12;;;;;;;3.88;0.88;;;3.30;99.90;;;;;;4211091;28;20040;-90
2022/04/09 04:51:14;;;;;;;5.57;1.38;;;4.70;99.90;;;;;;4213559;28;20056;-90
2022/04/09 04:53:15;;;;;;;12.38;1.58;;;4.20;99.90;;;;;;4196817;28;20111;-90
2022/04/09 04:55:17;;;;;;;6.53;1.08;;;4.40;99.90;;;;;;4191746;28;20048;-90
2022/04/09 04:57:18;;;;;;;6.43;0.98;;;3.20;99.90;;;;;;4209421;28;20430;-89
2022/04/09 04:59:19;;;;;;;5.28;1.35;;;3.40;99.90;;;;;;4210634;28;20036;-88
2022/04/09 05:01:21;;;;;;;7.35;0.88;;;4.70;99.90;;;;;;4193728;28;20052;-88
2022/04/09 05:03:23;;;;;;;9.60;1.00;;;4.10;99.90;;;;;;4192482;28;20150;-88
2022/04/09 05:05:26;;;;;;;10.05;1.05;;;3.20;99.90;;;;;;4206994;28;20067;-88
2022/04/09 05:07:38;;;;;;;2.95;1.40;;;3.30;99.90;;;;;;4191293;28;20052;-88
2022/04/09 05:09:41;;;;;;;7.85;1.02;;;4.00;99.90;;;;;;4195999;28;20094;-89
2022/04/09 05:11:42;;;;;;;7.90;0.77;;;4.50;99.90;;;;;;4200908;28;20052;-88
2022/04/09 05:13:42;;;;;;;5.13;0.80;;;4.10;99.90;;;;;;4184293;28;20053;-89
2022/04/09 05:15:43;;;;;;;7.55;1.20;;;3.10;99.90;;;;;;4195666;28;20612;-88
2022/04/09 05:17:45;;;;;;;7.93;1.92;;;4.20;99.90;;;;;;4210821;28;20048;-88
2022/04/09 05:19:48;;;;;;;4.22;0.80;;;4.50;99.90;;;;;;4206565;28;20048;-88
2022/04/09 05:21:50;;;;;;;5.13;0.95;;;3.90;99.90;;;;;;4187340;28;20060;-88
2022/04/09 05:23:51;;;;;;;8.27;0.93;;;4.50;99.90;;;;;;4195007;28;20120;-90
2022/04/09 05:25:51;;;;;;;11.85;2.47;;;4.90;99.90;;;;;;4201276;28;20048;-89
2022/04/09 05:27:54;;;;;;;7.10;2.08;;;5.00;99.90;;;;;;4210094;28;20052;-89
2022/04/09 05:29:55;;;;;;;9.60;1.63;;;3.60;99.90;;;;;;4204373;28;20505;-89
2022/04/09 05:31:59;;;;;;;4.55;0.88;;;4.00;99.90;;;;;;4187124;28;20120;-89
2022/04/09 05:34:00;;;;;;;9.35;1.20;;;4.90;99.90;;;;;;4190840;28;20104;-89
2022/04/09 05:36:02;;;;;;;7.35;0.80;;;4.00;99.90;;;;;;4189039;28;20045;-89
2022/04/09 05:38:05;;;;;;;7.25;0.85;;;4.70;99.90;;;;;;4191701;28;20482;-89
2022/04/09 05:40:07;;;;;;;11.68;1.98;;;3.60;99.90;;;;;;4194867;28;20066;-89
2022/04/09 05:42:07;;;;;;;6.93;1.05;;;3.60;99.90;;;;;;4205842;28;20406;-90
2022/04/09 05:44:10;;;;;;;5.25;1.35;;;3.60;99.90;;;;;;4194783;28;20044;-90
2022/04/09 05:46:11;;;;;;;2.97;0.60;;;5.00;99.90;;;;;;4193303;28;20040;-90
2022/04/09 05:48:13;;;;;;;2.08;0.50;;;3.70;99.90;;;;;;4186899;28;20320;-89
2022/04/09 05:50:17;;;;;;;5.25;0.50;;;4.60;99.90;;;;;;4212953;28;20041;-89
2022/04/09 05:52:19;;;;;;;2.63;0.60;;;5.00;99.90;;;;;;4190339;28;20076;-89
2022/04/09 05:54:20;;;;;;;5.47;1.48;;;5.10;99.90;;;;;;4189227;28;20041;-89
2022/04/09 05:56:22;;;;;;;7.40;1.13;;;4.00;99.90;;;;;;4209356;28;20569;-89
2022/04/09 05:58:23;;;;;;;4.60;0.63;;;4.80;99.90;;;;;;4198080;28;20052;-89
2022/04/09 06:00:25;;;;;;;8.95;1.00;;;5.30;99.90;;;;;;4210877;28;20135;-89
2022/04/09 06:02:27;;;;;;;5.78;0.60;;;4.70;99.90;;;;;;4208543;28;20540;-89
2022/04/09 06:04:28;;;;;;;7.07;1.02;;;5.50;99.90;;;;;;4193396;28;20036;-89
2022/04/09 06:06:29;;;;;;;8.05;1.77;;;;;;;;;;4190027;28;20059;-89
2022/04/09 06:08:33;;;;;;;5.20;0.80;;;4.30;99.90;;;;;;4212081;28;20044;-89
2022/04/09 06:10:35;;;;;;;4.70;0.85;;;4.40;99.90;;;;;;4202103;28;20083;-89
2022/04/09 06:12:37;;;;;;;7.30;1.20;;;4.80;99.90;;;;;;4204861;28;20051;-89
2022/04/09 06:14:38;;;;;;;2.33;0.63;;;5.90;99.90;;;;;;4192761;28;20506;-89
2022/04/09 06:16:41;;;;;;;7.13;1.48;;;5.00;99.90;;;;;;4211402;28;20052;-88
2022/04/09 06:18:42;;;;;;;5.90;1.40;;;4.20;99.90;;;;;;4211035;28;20405;-89
2022/04/09 06:20:44;;;;;;;5.70;1.25;;;5.60;99.90;;;;;;4193122;28;20414;-89
2022/04/09 06:22:45;;;;;;;5.72;0.82;;;6.00;99.90;;;;;;4192948;28;20041;-89
2022/04/09 06:24:47;;;;;;;7.53;0.82;;;4.40;99.90;;;;;;4203343;28;20090;-90
2022/04/09 06:26:49;;;;;;;3.05;0.65;;;4.40;99.90;;;;;;4194296;28;20036;-89
2022/04/09 06:28:50;;;;;;;9.10;0.85;;;4.90;99.90;;;;;;4206315;28;20040;-88
2022/04/09 06:30:52;;;;;;;3.92;0.63;;;4.40;99.90;;;;;;4193142;28;20041;-88
2022/04/09 06:32:54;;;;;;;3.72;0.80;;;5.40;99.90;;;;;;4203601;28;20477;-88
2022/04/09 06:34:55;;;;;;;4.30;0.80;;;5.70;99.90;;;;;;4202262;28;20052;-88
2022/04/09 06:36:56;;;;;;;8.68;1.60;;;5.60;99.90;;;;;;4209634;28;20051;-89
2022/04/09 06:38:57;;;;;;;6.60;1.00;;;5.40;99.90;;;;;;4187942;28;20123;-88
2022/04/09 06:41:00;;;;;;;7.50;1.48;;;5.00;99.90;;;;;;4211577;28;20040;-88
2022/04/09 06:43:02;;;;;;;5.78;1.02;;;5.10;99.90;;;;;;4190165;28;20131;-88
2022/04/09 06:45:05;;;;;;;7.22;2.17;;;5.30;99.90;;;;;;4185428;28;20494;-88
2022/04/09 06:47:09;;;;;;;8.88;1.08;;;5.20;99.90;;;;;;4187050;28;20461;-88
2022/04/09 06:49:14;;;;;;;5.82;1.33;;;6.50;99.90;;;;;;4204402;28;20517;-89
2022/04/09 06:51:15;;;;;;;5.72;1.83;;;5.60;99.90;;;;;;4191394;28;20045;-88
2022/04/09 06:53:17;;;;;;;9.93;1.30;;;5.10;99.90;;;;;;4194036;28;20101;-89
2022/04/09 06:55:19;;;;;;;7.63;2.13;;;6.40;99.90;;;;;;4209081;28;20131;-88
2022/04/09 06:57:26;;;;;;;12.43;3.28;;;6.30;99.90;;;;;;4191702;28;20100;-90
2022/04/09 06:59:26;;;;;;;12.48;1.33;;;5.00;99.90;;;;;;4193149;28;20052;-90
2022/04/09 07:01:29;;;;;;;9.43;1.42;;;5.10;99.90;;;;;;4188400;28;20048;-89
2022/04/09 07:03:35;;;;;;;6.25;1.25;;;;;;;;;;4186786;28;20132;-91
2022/04/09 07:05:36;;;;;;;8.18;0.98;;;;;;;;;;4209848;28;20120;-90
2022/04/09 07:07:38;;;;;;;7.72;1.33;;;;;;;;;;4196582;28;20066;-89
2022/04/09 07:09:43;;;;;;;3.70;1.02;;;;;;;;;;4214959;28;20050;-91
2022/04/09 07:11:45;;;;;;;12.55;1.13;;;5.80;99.90;;;;;;4210541;28;20040;-91
2022/04/09 07:13:46;;;;;;;7.63;1.20;;;6.10;99.90;;;;;;4198294;28;20395;-90
2022/04/09 07:15:52;;;;;;;5.38;0.93;;;5.50;99.90;;;;;;4192581;28;20152;-92
2022/04/09 07:17:55;;;;;;;5.88;0.88;;;5.50;99.90;;;;;;4189025;28;20461;-91
2022/04/09 07:20:05;;;;;;;10.60;0.98;;;7.40;99.90;;;;;;4213635;28;20047;-91
2022/04/09 07:22:06;;;;;;;8.35;1.48;;;5.80;99.90;;;;;;4187333;28;20116;-91
2022/04/09 07:24:07;;;;;;;6.03;1.23;;;5.80;99.90;;;;;;4203704;28;20043;-89
2022/04/09 07:26:08;;;;;;;9.95;2.25;;;5.70;99.90;;;;;;4212929;28;20436;-89
2022/04/09 07:28:16;;;;;;;7.32;1.10;;;5.90;99.90;;;;;;4213595;28;20044;-93
2022/04/09 07:30:19;;;;;;;10.82;1.35;;;6.20;99.90;;;;;;4191573;28;20510;-90
2022/04/09 07:32:25;;;;;;;6.53;1.20;;;6.90;99.90;;;;;;4210410;28;20047;-91
2022/04/09 07:34:26;;;;;;;8.50;0.95;;;;;;;;;;4207518;28;20049;-89
2022/04/09 07:36:28;;;;;;;8.60;2.20;;;;;;;;;;4208886;28;20525;-91
2022/04/09 07:38:29;;;;;;;8.45;1.50;;;;;;;;;;4211697;28;20044;-90
2022/04/09 07:40:36;;;;;;;9.50;1.35;;;;;;;;;;4197860;28;20068;-89
2022/04/09 07:42:45;;;;;;;8.68;1.23;;;;;;;;;;4207136;28;20100;-91
2022/04/09 07:44:48;;;;;;;10.55;1.08;;;;;;;;;;4191657;28;20060;-89
2022/04/09 07:46:50;;;;;;;5.35;0.88;;;;;;;;;;4207049;28;20049;-90
2022/04/09 07:48:51;;;;;;;7.35;1.20;;;;;;;;;;4193303;28;20040;-91
2022/04/09 07:50:53;;;;;;;12.00;2.28;;;;;;;;;;4184569;28;20291;-90
2022/04/09 07:52:56;;;;;;;8.95;2.17;;;;;;;;;;4202877;28;20087;-90
2022/04/09 07:54:58;;;;;;;12.52;1.88;;;;;;;;;;4209881;28;20123;-88
2022/04/09 07:56:59;;;;;;;13.10;2.65;;;;;;;;;;4185606;28;20048;-88
2022/04/09 07:59:00;;;;;;;7.28;0.70;;;;;;;;;;4209245;28;20505;-89
2022/04/09 08:01:04;;;;;;;6.57;1.23;;;;;;;;;;4205367;28;20127;-89
2022/04/09 08:03:08;;;;;;;12.75;1.42;;;;;;;;;;4200454;28;20042;-89
2022/04/09 08:05:10;;;;;;;11.73;1.20;;;;;;;;;;4194192;28;20145;-88
2022/04/09 08:07:11;;;;;;;16.35;2.88;;;;;;;;;;4215584;28;20530;-88
2022/04/09 08:09:12;;;;;;;7.43;1.75;;;;;;;;;;4212235;28;20178;-88
2022/04/09 08:11:17;;;;;;;7.47;1.92;;;;;;;;;;4211418;28;20055;-88
2022/04/09 08:13:19;;;;;;;7.97;1.13;;;;;;;;;;4203579;28;20036;-89
2022/04/09 08:15:20;;;;;;;8.13;1.10;;;;;;;;;;4212320;28;20053;-88
2022/04/09 08:17:21;;;;;;;12.75;1.30;;;;;;;;;;4203879;28;20438;-87
2022/04/09 08:19:23;;;;;;;8.55;1.45;;;;;;;;;;4202504;28;20056;-90
2022/04/09 08:21:24;;;;;;;11.02;2.28;;;;;;;;;;4195134;28;20134;-89
2022/04/09 08:23:26;;;;;;;12.55;1.40;;;;;;;;;;4197010;28;20469;-89
2022/04/09 08:25:28;;;;;;;7.28;1.23;;;;;;;;;;4192986;28;20045;-88
2022/04/09 08:27:29;;;;;;;2.75;0.80;;;;;;;;;;4210924;28;20039;-88
2022/04/09 08:29:32;;;;;;;4.95;0.50;;;;;;;;;;4192376;28;20044;-88
2022/04/09 08:31:34;;;;;;;2.47;0.40;;;;;;;;;;4187692;28;20406;-89
2022/04/09 08:33:35;;;;;;;3.72;0.68;;;6.90;99.90;;;;;;4191017;28;20420;-88
2022/04/09 08:35:36;;;;;;;5.88;0.70;;;7.70;99.90;;;;;;4190689;28;20096;-88
2022/04/09 08:37:42;;;;;;;11.35;1.27;;;8.10;99.90;;;;;;4214440;28;20055;-88
2022/04/09 08:39:43;;;;;;;4.03;0.80;;;7.40;99.90;;;;;;4213544;28;20055;-89
2022/04/09 08:41:44;;;;;;;3.40;0.47;;;7.20;99.90;;;;;;4188193;28;20504;-89
2022/04/09 08:43:45;;;;;;;7.20;1.33;;;7.30;99.90;;;;;;4207671;28;20082;-89
2022/04/09 08:45:47;;;;;;;5.80;0.60;;;7.50;99.90;;;;;;4209627;28;20391;-88
2022/04/09 08:47:50;;;;;;;3.97;0.80;;;;;;;;;;4204325;28;20041;-89
2022/04/09 08:49:53;;;;;;;10.73;1.27;;;;;;;;;;4207114;28;20481;-89
2022/04/09 08:51:54;;;;;;;15.20;1.13;;;;;;;;;;4213858;28;20083;-88
2022/04/09 08:53:56;;;;;;;6.80;1.63;;;;;;;;;;4214142;28;20055;-89
2022/04/09 08:55:57;;;;;;;2.75;0.47;;;;;;;;;;4193847;28;20055;-88
2022/04/09 08:57:58;;;;;;;4.63;1.25;;;7.60;99.90;;;;;;4187784;28;20091;-87
2022/04/09 09:00:07;;;;;;;2.88;1.10;;;7.50;99.90;;;;;;4207055;28;20445;-88
2022/04/09 09:02:08;;;;;;;2.85;0.75;;;7.30;99.90;;;;;;4192064;28;20044;-87
2022/04/09 09:04:10;;;;;;;1.15;0.30;;;7.80;99.90;;;;;;4194994;28;20135;-87
2022/04/09 09:06:32;;;;;;;3.03;0.93;;;7.10;99.90;;;;;;4201804;28;20112;-87
2022/04/09 09:08:39;;;;;;;2.00;0.38;;;6.90;99.90;;;;;;4201524;28;20513;-87
2022/04/09 09:10:41;;;;;;;1.30;0.22;;;6.90;99.90;;;;;;4187343;28;20628;-87
2022/04/09 09:12:43;;;;;;;3.08;0.75;;;6.10;99.90;;;;;;4205386;28;20053;-87
2022/04/09 09:14:46;;;;;;;7.38;0.32;;;7.00;99.90;;;;;;4205090;28;20040;-87
2022/04/09 09:16:48;;;;;;;1.80;0.25;;;7.70;99.90;;;;;;4204502;28;20533;-86
2022/04/09 09:18:51;;;;;;;1.90;0.40;;;6.70;99.90;;;;;;4211185;28;20043;-85
2022/04/09 09:20:53;;;;;;;1.88;0.40;;;;;;;;;;4210745;28;20127;-86
2022/04/09 09:22:54;;;;;;;0.60;0.20;;;;;;;;;;4187703;28;20522;-87
2022/04/09 09:25:03;;;;;;;2.85;0.45;;;;;;;;;;4210358;28;20115;-86
2022/04/09 09:27:06;;;;;;;1.65;0.30;;;;;;;;;;4201252;28;20115;-86
2022/04/09 09:29:09;;;;;;;1.33;0.40;;;6.20;99.90;;;;;;4186833;28;20426;-86
2022/04/09 09:31:12;;;;;;;5.30;0.40;;;9.60;99.90;;;;;;4192221;28;20080;-86
2022/04/09 09:33:14;;;;;;;3.58;0.70;;;10.00;99.90;;;;;;4205087;28;20077;-86
2022/04/09 09:35:16;;;;;;;2.55;0.35;;;10.40;99.90;;;;;;4211042;28;20052;-86
2022/04/09 09:37:22;;;;;;;3.67;0.40;;;;;;;;;;4187126;28;20036;-86
2022/04/09 09:39:25;;;;;;;12.35;0.88;;;;;;;;;;4199983;28;20048;-87
2022/04/09 09:41:28;;;;;;;6.07;1.00;;;;;;;;;;4187239;28;20516;-88
2022/04/09 09:43:31;;;;;;;9.18;2.17;;;;;;;;;;4193585;28;20083;-87
2022/04/09 09:45:42;;;;;;;5.30;0.90;;;;;;;;;;4212662;28;20051;-87
2022/04/09 09:48:39;;;;;;;6.00;0.80;;;11.10;99.90;;;;;;4210321;28;20043;-87
2022/04/09 09:50:42;;;;;;;9.35;1.17;;;9.80;98.60;;;;;;4192062;28;20490;-87
2022/04/09 09:52:43;;;;;;;5.57;0.80;;;9.00;99.90;;;;;;4201518;28;20117;-87
2022/04/09 09:55:04;;;;;;;4.38;0.60;;;9.70;99.90;;;;;;4207662;28;20072;-85
2022/04/09 09:57:19;;;;;;;4.25;0.57;;;7.40;99.90;;;;;;4210907;28;20055;-87
2022/04/09 09:59:22;;;;;;;1.80;0.30;;;7.90;99.90;;;;;;4209920;28;20048;-86
2022/04/09 10:01:23;;;;;;;0.57;0.22;;;8.20;99.90;;;;;;4211718;28;20123;-87
2022/04/09 10:03:25;;;;;;;0.50;0.05;;;8.70;99.90;;;;;;4212301;28;20133;-86
2022/04/09 10:05:26;;;;;;;1.38;0.63;;;6.60;99.90;;;;;;4191813;28;20411;-86
2022/04/09 10:07:29;;;;;;;0.38;0.10;;;8.20;99.90;;;;;;4211473;28;20062;-87
2022/04/09 10:09:30;;;;;;;2.10;0.20;;;7.50;99.90;;;;;;4205147;28;20109;-86
2022/04/09 10:11:35;;;;;;;1.15;0.13;;;7.50;99.90;;;;;;4198821;28;20036;-86
2022/04/09 10:13:40;;;;;;;0.60;0.13;;;8.70;99.90;;;;;;4191723;28;20053;-87
2022/04/09 10:15:46;;;;;;;0.43;0.10;;;7.60;99.90;;;;;;4211304;28;20056;-86
2022/04/09 10:17:51;;;;;;;2.47;0.10;;;7.80;99.90;;;;;;4212065;28;20478;-87
2022/04/09 10:19:57;;;;;;;2.58;0.52;;;8.40;99.90;;;;;;4210774;28;20105;-87
2022/04/09 10:21:59;;;;;;;4.35;1.00;;;9.00;99.90;;;;;;4206165;28;20089;-87
2022/04/09 10:24:03;;;;;;;3.33;0.63;;;9.30;99.90;;;;;;4204470;28;20040;-87
2022/04/09 10:26:08;;;;;;;3.88;0.60;;;9.70;99.90;;;;;;4190717;28;20041;-88
2022/04/09 10:28:09;;;;;;;6.18;1.27;;;9.80;99.90;;;;;;4206933;28;20036;-89
2022/04/09 10:30:18;;;;;;;4.47;0.82;;;9.50;99.90;;;;;;4201196;28;20048;-89
2022/04/09 10:32:44;;;;;;;6.40;1.17;;;10.10;99.90;;;;;;4203567;28;20051;-89
2022/04/09 10:34:50;;;;;;;7.38;1.20;;;9.80;99.90;;;;;;4185263;28;20127;-89
2022/04/09 10:36:54;;;;;;;2.67;0.20;;;10.00;99.90;;;;;;4209520;28;20489;-89
2022/04/09 10:39:25;;;;;;;3.70;1.55;;;10.10;99.90;;;;;;4186786;28;20564;-90
2022/04/09 10:41:27;;;;;;;4.05;0.63;;;10.60;99.90;;;;;;4202884;28;20052;-89
2022/04/09 10:43:28;;;;;;;0.68;0.20;;;10.70;99.90;;;;;;4201869;28;20051;-90
2022/04/09 10:45:30;;;;;;;3.47;0.30;;;;;;;;;;4200352;28;20048;-90
2022/04/09 10:48:14;;;;;;;1.48;0.20;;;10.70;99.90;;;;;;4202908;28;20040;-87
2022/04/09 10:50:14;;;;;;;2.80;0.85;;;10.80;98.50;;;;;;4200098;28;20126;-86
2022/04/09 10:52:23;;;;;;;2.50;0.55;;;10.60;99.90;;;;;;4199404;28;20493;-87
2022/04/09 10:54:24;;;;;;;1.98;0.22;;;;;;;;;;4203424;28;20123;-87
2022/04/09 10:56:27;;;;;;;2.55;0.70;;;;;;;;;;4185905;28;20040;-87
2022/04/09 10:58:28;;;;;;;4.13;0.68;;;;;;;;;;4202915;28;20345;-87
2022/04/09 11:00:30;;;;;;;7.82;1.33;;;;;;;;;;4208365;28;20044;-88
2022/04/09 11:02:31;;;;;;;7.25;1.20;;;;;;;;;;4205360;28;20424;-87